sensor_id;sensor_type;location;lat;lon;timestamp;P1;durP1;ratioP1;P2;durP2;ratioP2
22382;SDS011;11359;45.802;13.530;2023-04-03T00:02:07;0.20;;;0.20;;
22382;SDS011;11359;45.802;13.530;2023-04-03T00:04:32;0.30;;;0.30;;
22382;SDS011;11359;45.802;13.530;2023-04-03T00:06:58;0.30;;;0.30;;
22382;SDS011;11359;45.802;13.530;2023-04-03T00:09:24;0.30;;;0.30;;
22382;SDS011;11359;45.802;13.530;2023-04-03T00:11:50;0.20;;;0.20;;
22382;SDS011;11359;45.802;13.530;2023-04-03T00:14:15;0.20;;;0.20;;
22382;SDS011;11359;45.802;13.530;2023-04-03T00:16:41;0.30;;;0.30;;
22382;SDS011;11359;45.802;13.530;2023-04-03T00:19:07;0.30;;;0.30;;
22382;SDS011;11359;45.802;13.530;2023-04-03T00:21:33;0.22;;;0.22;;
22382;SDS011;11359;45.802;13.530;2023-04-03T00:23:59;0.30;;;0.30;;
22382;SDS011;11359;45.802;13.530;2023-04-03T00:26:24;0.30;;;0.30;;
22382;SDS011;11359;45.802;13.530;2023-04-03T00:28:50;0.20;;;0.20;;
22382;SDS011;11359;45.802;13.530;2023-04-03T00:31:16;0.30;;;0.30;;
22382;SDS011;11359;45.802;13.530;2023-04-03T00:33:42;0.20;;;0.20;;
22382;SDS011;11359;45.802;13.530;2023-04-03T00:36:08;0.30;;;0.30;;
22382;SDS011;11359;45.802;13.530;2023-04-03T00:38:35;0.32;;;0.32;;
22382;SDS011;11359;45.802;13.530;2023-04-03T00:41:01;0.30;;;0.30;;
22382;SDS011;11359;45.802;13.530;2023-04-03T00:43:27;0.30;;;0.30;;
22382;SDS011;11359;45.802;13.530;2023-04-03T00:45:53;0.30;;;0.30;;
22382;SDS011;11359;45.802;13.530;2023-04-03T00:48:37;0.40;;;0.40;;
22382;SDS011;11359;45.802;13.530;2023-04-03T00:51:06;0.30;;;0.30;;
22382;SDS011;11359;45.802;13.530;2023-04-03T00:53:58;0.40;;;0.40;;
22382;SDS011;11359;45.802;13.530;2023-04-03T00:56:25;0.30;;;0.30;;
22382;SDS011;11359;45.802;13.530;2023-04-03T00:59:14;0.38;;;0.38;;
22382;SDS011;11359;45.802;13.530;2023-04-03T01:01:58;0.40;;;0.40;;
22382;SDS011;11359;45.802;13.530;2023-04-03T01:04:29;0.30;;;0.30;;
22382;SDS011;11359;45.802;13.530;2023-04-03T01:06:56;0.40;;;0.40;;
22382;SDS011;11359;45.802;13.530;2023-04-03T01:09:26;0.40;;;0.30;;
22382;SDS011;11359;45.802;13.530;2023-04-03T01:11:53;0.40;;;0.40;;
22382;SDS011;11359;45.802;13.530;2023-04-03T01:14:18;0.30;;;0.30;;
22382;SDS011;11359;45.802;13.530;2023-04-03T01:16:53;0.32;;;0.30;;
22382;SDS011;11359;45.802;13.530;2023-04-03T01:19:19;0.38;;;0.38;;
22382;SDS011;11359;45.802;13.530;2023-04-03T01:26:53;0.30;;;0.30;;
22382;SDS011;11359;45.802;13.530;2023-04-03T01:29:19;0.30;;;0.30;;
22382;SDS011;11359;45.802;13.530;2023-04-03T01:31:52;0.45;;;0.40;;
22382;SDS011;11359;45.802;13.530;2023-04-03T01:34:19;0.40;;;0.40;;
22382;SDS011;11359;45.802;13.530;2023-04-03T01:36:45;0.40;;;0.40;;
22382;SDS011;11359;45.802;13.530;2023-04-03T01:39:11;0.30;;;0.30;;
22382;SDS011;11359;45.802;13.530;2023-04-03T01:41:37;0.30;;;0.30;;
22382;SDS011;11359;45.802;13.530;2023-04-03T01:44:02;0.30;;;0.30;;
22382;SDS011;11359;45.802;13.530;2023-04-03T01:46:29;0.40;;;0.40;;
22382;SDS011;11359;45.802;13.530;2023-04-03T01:48:54;0.30;;;0.30;;
22382;SDS011;11359;45.802;13.530;2023-04-03T01:51:20;0.32;;;0.32;;
22382;SDS011;11359;45.802;13.530;2023-04-03T01:53:46;0.40;;;0.40;;
22382;SDS011;11359;45.802;13.530;2023-04-03T01:56:12;0.40;;;0.40;;
22382;SDS011;11359;45.802;13.530;2023-04-03T01:58:37;0.40;;;0.40;;
22382;SDS011;11359;45.802;13.530;2023-04-03T02:01:04;0.40;;;0.40;;
22382;SDS011;11359;45.802;13.530;2023-04-03T02:03:30;0.30;;;0.30;;
22382;SDS011;11359;45.802;13.530;2023-04-03T02:05:56;0.30;;;0.30;;
22382;SDS011;11359;45.802;13.530;2023-04-03T02:08:21;0.40;;;0.40;;
22382;SDS011;11359;45.802;13.530;2023-04-03T02:10:47;0.40;;;0.40;;
22382;SDS011;11359;45.802;13.530;2023-04-03T02:13:14;0.40;;;0.40;;
22382;SDS011;11359;45.802;13.530;2023-04-03T02:15:39;0.30;;;0.30;;
22382;SDS011;11359;45.802;13.530;2023-04-03T02:18:05;0.40;;;0.40;;
22382;SDS011;11359;45.802;13.530;2023-04-03T02:20:32;0.40;;;0.40;;
22382;SDS011;11359;45.802;13.530;2023-04-03T02:22:58;0.30;;;0.30;;
22382;SDS011;11359;45.802;13.530;2023-04-03T02:25:24;0.30;;;0.30;;
22382;SDS011;11359;45.802;13.530;2023-04-03T02:27:49;0.30;;;0.30;;
22382;SDS011;11359;45.802;13.530;2023-04-03T02:30:15;0.40;;;0.40;;
22382;SDS011;11359;45.802;13.530;2023-04-03T02:32:41;0.40;;;0.40;;
22382;SDS011;11359;45.802;13.530;2023-04-03T02:35:07;0.40;;;0.40;;
22382;SDS011;11359;45.802;13.530;2023-04-03T02:37:34;0.30;;;0.30;;
22382;SDS011;11359;45.802;13.530;2023-04-03T02:40:00;0.30;;;0.30;;
22382;SDS011;11359;45.802;13.530;2023-04-03T02:42:25;0.30;;;0.30;;
22382;SDS011;11359;45.802;13.530;2023-04-03T02:44:51;0.30;;;0.30;;
22382;SDS011;11359;45.802;13.530;2023-04-03T02:47:17;0.30;;;0.30;;
22382;SDS011;11359;45.802;13.530;2023-04-03T02:49:42;0.38;;;0.30;;
22382;SDS011;11359;45.802;13.530;2023-04-03T02:52:11;0.30;;;0.30;;
22382;SDS011;11359;45.802;13.530;2023-04-03T02:54:37;0.40;;;0.40;;
22382;SDS011;11359;45.802;13.530;2023-04-03T02:57:03;0.38;;;0.38;;
22382;SDS011;11359;45.802;13.530;2023-04-03T02:59:29;0.30;;;0.30;;
22382;SDS011;11359;45.802;13.530;2023-04-03T03:01:55;0.40;;;0.40;;
22382;SDS011;11359;45.802;13.530;2023-04-03T03:04:21;0.40;;;0.40;;
22382;SDS011;11359;45.802;13.530;2023-04-03T03:06:47;0.47;;;0.47;;
22382;SDS011;11359;45.802;13.530;2023-04-03T03:09:12;0.60;;;0.50;;
22382;SDS011;11359;45.802;13.530;2023-04-03T03:11:38;0.50;;;0.40;;
22382;SDS011;11359;45.802;13.530;2023-04-03T03:14:04;0.50;;;0.50;;
22382;SDS011;11359;45.802;13.530;2023-04-03T03:16:30;0.40;;;0.40;;
22382;SDS011;11359;45.802;13.530;2023-04-03T03:18:56;0.40;;;0.40;;
22382;SDS011;11359;45.802;13.530;2023-04-03T03:21:21;0.40;;;0.40;;
22382;SDS011;11359;45.802;13.530;2023-04-03T03:23:47;0.50;;;0.40;;
22382;SDS011;11359;45.802;13.530;2023-04-03T03:26:12;0.50;;;0.40;;
22382;SDS011;11359;45.802;13.530;2023-04-03T03:28:38;0.65;;;0.50;;
22382;SDS011;11359;45.802;13.530;2023-04-03T03:31:05;0.60;;;0.40;;
22382;SDS011;11359;45.802;13.530;2023-04-03T03:33:31;0.70;;;0.60;;
22382;SDS011;11359;45.802;13.530;2023-04-03T03:35:57;0.70;;;0.60;;
22382;SDS011;11359;45.802;13.530;2023-04-03T03:38:23;0.60;;;0.60;;
22382;SDS011;11359;45.802;13.530;2023-04-03T03:40:49;0.40;;;0.40;;
22382;SDS011;11359;45.802;13.530;2023-04-03T03:43:16;0.43;;;0.43;;
22382;SDS011;11359;45.802;13.530;2023-04-03T03:45:42;0.60;;;0.60;;
22382;SDS011;11359;45.802;13.530;2023-04-03T03:48:08;0.63;;;0.50;;
22382;SDS011;11359;45.802;13.530;2023-04-03T03:50:34;0.50;;;0.50;;
22382;SDS011;11359;45.802;13.530;2023-04-03T03:53:00;0.60;;;0.60;;
22382;SDS011;11359;45.802;13.530;2023-04-03T03:55:26;0.50;;;0.50;;
22382;SDS011;11359;45.802;13.530;2023-04-03T03:57:52;0.50;;;0.50;;
22382;SDS011;11359;45.802;13.530;2023-04-03T04:00:17;0.50;;;0.50;;
22382;SDS011;11359;45.802;13.530;2023-04-03T04:02:43;0.50;;;0.50;;
22382;SDS011;11359;45.802;13.530;2023-04-03T04:05:09;0.50;;;0.50;;
22382;SDS011;11359;45.802;13.530;2023-04-03T04:07:35;0.52;;;0.50;;
22382;SDS011;11359;45.802;13.530;2023-04-03T04:10:01;0.50;;;0.50;;
22382;SDS011;11359;45.802;13.530;2023-04-03T04:12:27;0.80;;;0.60;;
22382;SDS011;11359;45.802;13.530;2023-04-03T04:14:53;0.80;;;0.60;;
22382;SDS011;11359;45.802;13.530;2023-04-03T04:17:18;0.55;;;0.52;;
22382;SDS011;11359;45.802;13.530;2023-04-03T04:19:44;1.30;;;0.70;;
22382;SDS011;11359;45.802;13.530;2023-04-03T04:22:10;0.68;;;0.68;;
22382;SDS011;11359;45.802;13.530;2023-04-03T04:24:36;0.77;;;0.77;;
22382;SDS011;11359;45.802;13.530;2023-04-03T04:27:02;0.75;;;0.68;;
22382;SDS011;11359;45.802;13.530;2023-04-03T04:29:28;1.17;;;0.90;;
22382;SDS011;11359;45.802;13.530;2023-04-03T04:31:54;0.90;;;0.70;;
22382;SDS011;11359;45.802;13.530;2023-04-03T04:34:19;0.80;;;0.60;;
22382;SDS011;11359;45.802;13.530;2023-04-03T04:36:45;0.77;;;0.60;;
22382;SDS011;11359;45.802;13.530;2023-04-03T04:39:11;0.88;;;0.80;;
22382;SDS011;11359;45.802;13.530;2023-04-03T04:41:36;0.80;;;0.70;;
22382;SDS011;11359;45.802;13.530;2023-04-03T04:44:02;1.00;;;0.70;;
22382;SDS011;11359;45.802;13.530;2023-04-03T04:46:28;0.70;;;0.70;;
22382;SDS011;11359;45.802;13.530;2023-04-03T04:48:54;1.02;;;0.80;;
22382;SDS011;11359;45.802;13.530;2023-04-03T04:51:19;1.10;;;0.90;;
22382;SDS011;11359;45.802;13.530;2023-04-03T04:53:45;1.00;;;0.80;;
22382;SDS011;11359;45.802;13.530;2023-04-03T04:56:11;0.98;;;0.82;;
22382;SDS011;11359;45.802;13.530;2023-04-03T04:58:37;1.05;;;0.82;;
22382;SDS011;11359;45.802;13.530;2023-04-03T05:01:03;0.93;;;0.82;;
22382;SDS011;11359;45.802;13.530;2023-04-03T05:03:31;1.02;;;0.77;;
22382;SDS011;11359;45.802;13.530;2023-04-03T05:05:57;1.35;;;0.93;;
22382;SDS011;11359;45.802;13.530;2023-04-03T05:08:23;1.15;;;0.80;;
22382;SDS011;11359;45.802;13.530;2023-04-03T05:10:49;0.70;;;0.70;;
22382;SDS011;11359;45.802;13.530;2023-04-03T05:13:15;0.80;;;0.80;;
22382;SDS011;11359;45.802;13.530;2023-04-03T05:15:40;0.82;;;0.73;;
22382;SDS011;11359;45.802;13.530;2023-04-03T05:18:06;0.85;;;0.70;;
22382;SDS011;11359;45.802;13.530;2023-04-03T05:20:32;1.00;;;0.88;;
22382;SDS011;11359;45.802;13.530;2023-04-03T05:22:58;0.73;;;0.70;;
22382;SDS011;11359;45.802;13.530;2023-04-03T05:25:24;0.82;;;0.70;;
22382;SDS011;11359;45.802;13.530;2023-04-03T05:27:50;0.85;;;0.70;;
22382;SDS011;11359;45.802;13.530;2023-04-03T05:30:16;0.85;;;0.80;;
22382;SDS011;11359;45.802;13.530;2023-04-03T05:32:42;0.70;;;0.60;;
22382;SDS011;11359;45.802;13.530;2023-04-03T05:35:08;0.85;;;0.70;;
22382;SDS011;11359;45.802;13.530;2023-04-03T05:37:34;0.70;;;0.70;;
22382;SDS011;11359;45.802;13.530;2023-04-03T05:40:02;1.10;;;0.70;;
22382;SDS011;11359;45.802;13.530;2023-04-03T05:42:29;0.88;;;0.80;;
22382;SDS011;11359;45.802;13.530;2023-04-03T05:44:56;0.75;;;0.75;;
22382;SDS011;11359;45.802;13.530;2023-04-03T05:47:22;0.85;;;0.77;;
22382;SDS011;11359;45.802;13.530;2023-04-03T05:49:48;1.58;;;0.80;;
22382;SDS011;11359;45.802;13.530;2023-04-03T05:52:19;1.05;;;0.75;;
22382;SDS011;11359;45.802;13.530;2023-04-03T05:54:52;0.95;;;0.80;;
22382;SDS011;11359;45.802;13.530;2023-04-03T05:57:17;0.63;;;0.63;;
22382;SDS011;11359;45.802;13.530;2023-04-03T05:59:45;0.93;;;0.80;;
22382;SDS011;11359;45.802;13.530;2023-04-03T06:02:16;0.70;;;0.70;;
22382;SDS011;11359;45.802;13.530;2023-04-03T06:04:44;1.60;;;0.80;;
22382;SDS011;11359;45.802;13.530;2023-04-03T06:07:18;1.08;;;0.70;;
22382;SDS011;11359;45.802;13.530;2023-04-03T06:09:49;0.75;;;0.60;;
22382;SDS011;11359;45.802;13.530;2023-04-03T06:12:19;0.63;;;0.63;;
22382;SDS011;11359;45.802;13.530;2023-04-03T06:14:45;0.75;;;0.65;;
22382;SDS011;11359;45.802;13.530;2023-04-03T06:17:10;0.65;;;0.50;;
22382;SDS011;11359;45.802;13.530;2023-04-03T06:19:37;0.63;;;0.60;;
22382;SDS011;11359;45.802;13.530;2023-04-03T06:22:03;0.70;;;0.70;;
22382;SDS011;11359;45.802;13.530;2023-04-03T06:24:30;1.25;;;0.60;;
22382;SDS011;11359;45.802;13.530;2023-04-03T06:26:56;0.60;;;0.60;;
22382;SDS011;11359;45.802;13.530;2023-04-03T06:29:23;0.50;;;0.50;;
22382;SDS011;11359;45.802;13.530;2023-04-03T06:31:50;0.80;;;0.60;;
22382;SDS011;11359;45.802;13.530;2023-04-03T06:34:16;0.80;;;0.80;;
22382;SDS011;11359;45.802;13.530;2023-04-03T06:36:43;0.73;;;0.60;;
22382;SDS011;11359;45.802;13.530;2023-04-03T06:39:14;0.60;;;0.60;;
22382;SDS011;11359;45.802;13.530;2023-04-03T06:41:42;0.60;;;0.50;;
22382;SDS011;11359;45.802;13.530;2023-04-03T06:44:09;0.82;;;0.70;;
22382;SDS011;11359;45.802;13.530;2023-04-03T06:46:36;0.57;;;0.57;;
22382;SDS011;11359;45.802;13.530;2023-04-03T06:49:03;0.60;;;0.60;;
22382;SDS011;11359;45.802;13.530;2023-04-03T06:51:29;0.70;;;0.60;;
22382;SDS011;11359;45.802;13.530;2023-04-03T06:53:56;0.88;;;0.70;;
22382;SDS011;11359;45.802;13.530;2023-04-03T06:56:23;0.65;;;0.65;;
22382;SDS011;11359;45.802;13.530;2023-04-03T06:58:50;1.52;;;0.75;;
22382;SDS011;11359;45.802;13.530;2023-04-03T07:01:17;0.60;;;0.60;;
22382;SDS011;11359;45.802;13.530;2023-04-03T07:03:44;0.50;;;0.50;;
22382;SDS011;11359;45.802;13.530;2023-04-03T07:06:17;0.65;;;0.60;;
22382;SDS011;11359;45.802;13.530;2023-04-03T07:08:43;0.80;;;0.60;;
22382;SDS011;11359;45.802;13.530;2023-04-03T07:11:10;0.68;;;0.60;;
22382;SDS011;11359;45.802;13.530;2023-04-03T07:13:37;0.50;;;0.50;;
22382;SDS011;11359;45.802;13.530;2023-04-03T07:16:03;0.60;;;0.60;;
22382;SDS011;11359;45.802;13.530;2023-04-03T07:18:30;0.60;;;0.60;;
22382;SDS011;11359;45.802;13.530;2023-04-03T07:20:59;0.43;;;0.43;;
22382;SDS011;11359;45.802;13.530;2023-04-03T07:23:25;0.60;;;0.60;;
22382;SDS011;11359;45.802;13.530;2023-04-03T07:25:51;0.52;;;0.52;;
22382;SDS011;11359;45.802;13.530;2023-04-03T07:28:19;0.57;;;0.52;;
22382;SDS011;11359;45.802;13.530;2023-04-03T07:30:46;0.82;;;0.65;;
22382;SDS011;11359;45.802;13.530;2023-04-03T07:33:14;0.70;;;0.60;;
22382;SDS011;11359;45.802;13.530;2023-04-03T07:35:41;0.63;;;0.52;;
22382;SDS011;11359;45.802;13.530;2023-04-03T07:38:08;0.73;;;0.60;;
22382;SDS011;11359;45.802;13.530;2023-04-03T07:40:34;0.57;;;0.50;;
22382;SDS011;11359;45.802;13.530;2023-04-03T07:43:00;0.90;;;0.60;;
22382;SDS011;11359;45.802;13.530;2023-04-03T07:45:27;0.57;;;0.50;;
22382;SDS011;11359;45.802;13.530;2023-04-03T07:47:53;0.68;;;0.50;;
22382;SDS011;11359;45.802;13.530;2023-04-03T07:50:19;0.60;;;0.60;;
22382;SDS011;11359;45.802;13.530;2023-04-03T07:52:45;0.50;;;0.50;;
22382;SDS011;11359;45.802;13.530;2023-04-03T07:55:11;0.57;;;0.50;;
22382;SDS011;11359;45.802;13.530;2023-04-03T07:57:37;0.40;;;0.40;;
22382;SDS011;11359;45.802;13.530;2023-04-03T08:00:03;0.50;;;0.50;;
22382;SDS011;11359;45.802;13.530;2023-04-03T08:02:30;0.60;;;0.60;;
22382;SDS011;11359;45.802;13.530;2023-04-03T08:04:57;0.50;;;0.50;;
22382;SDS011;11359;45.802;13.530;2023-04-03T08:07:23;0.60;;;0.60;;
22382;SDS011;11359;45.802;13.530;2023-04-03T08:09:49;0.68;;;0.50;;
22382;SDS011;11359;45.802;13.530;2023-04-03T08:12:15;0.52;;;0.50;;
22382;SDS011;11359;45.802;13.530;2023-04-03T08:14:41;0.60;;;0.60;;
22382;SDS011;11359;45.802;13.530;2023-04-03T08:17:07;0.77;;;0.60;;
22382;SDS011;11359;45.802;13.530;2023-04-03T08:19:36;0.63;;;0.55;;
22382;SDS011;11359;45.802;13.530;2023-04-03T08:22:02;0.63;;;0.60;;
22382;SDS011;11359;45.802;13.530;2023-04-03T08:24:30;0.50;;;0.50;;
22382;SDS011;11359;45.802;13.530;2023-04-03T08:26:56;0.40;;;0.40;;
22382;SDS011;11359;45.802;13.530;2023-04-03T08:29:22;0.68;;;0.50;;
22382;SDS011;11359;45.802;13.530;2023-04-03T08:31:48;0.43;;;0.43;;
22382;SDS011;11359;45.802;13.530;2023-04-03T08:34:15;0.40;;;0.40;;
22382;SDS011;11359;45.802;13.530;2023-04-03T08:36:41;0.40;;;0.40;;
22382;SDS011;11359;45.802;13.530;2023-04-03T08:39:07;0.50;;;0.50;;
22382;SDS011;11359;45.802;13.530;2023-04-03T08:49:47;0.47;;;0.40;;
22382;SDS011;11359;45.802;13.530;2023-04-03T08:52:23;0.43;;;0.43;;
22382;SDS011;11359;45.802;13.530;2023-04-03T08:57:40;0.50;;;0.50;;
22382;SDS011;11359;45.802;13.530;2023-04-03T09:00:16;0.68;;;0.60;;
22382;SDS011;11359;45.802;13.530;2023-04-03T09:02:51;0.60;;;0.50;;
22382;SDS011;11359;45.802;13.530;2023-04-03T09:05:45;0.45;;;0.40;;
22382;SDS011;11359;45.802;13.530;2023-04-03T09:11:09;0.40;;;0.40;;
22382;SDS011;11359;45.802;13.530;2023-04-03T09:17:00;0.52;;;0.40;;
22382;SDS011;11359;45.802;13.530;2023-04-03T09:22:13;0.50;;;0.50;;
22382;SDS011;11359;45.802;13.530;2023-04-03T09:24:45;0.63;;;0.60;;
22382;SDS011;11359;45.802;13.530;2023-04-03T09:27:15;0.65;;;0.50;;
22382;SDS011;11359;45.802;13.530;2023-04-03T09:29:42;0.50;;;0.50;;
22382;SDS011;11359;45.802;13.530;2023-04-03T09:34:58;0.50;;;0.50;;
22382;SDS011;11359;45.802;13.530;2023-04-03T09:37:38;0.50;;;0.50;;
22382;SDS011;11359;45.802;13.530;2023-04-03T09:40:06;0.50;;;0.50;;
22382;SDS011;11359;45.802;13.530;2023-04-03T09:43:01;0.55;;;0.50;;
22382;SDS011;11359;45.802;13.530;2023-04-03T09:45:44;0.60;;;0.52;;
22382;SDS011;11359;45.802;13.530;2023-04-03T09:53:47;0.40;;;0.40;;
22382;SDS011;11359;45.802;13.530;2023-04-03T09:58:41;0.40;;;0.40;;
22382;SDS011;11359;45.802;13.530;2023-04-03T10:06:33;0.47;;;0.43;;
22382;SDS011;11359;45.802;13.530;2023-04-03T10:09:03;0.40;;;0.40;;
22382;SDS011;11359;45.802;13.530;2023-04-03T10:11:31;0.50;;;0.50;;
22382;SDS011;11359;45.802;13.530;2023-04-03T10:13:58;0.40;;;0.40;;
22382;SDS011;11359;45.802;13.530;2023-04-03T10:16:27;0.43;;;0.40;;
22382;SDS011;11359;45.802;13.530;2023-04-03T10:27:23;0.40;;;0.40;;
22382;SDS011;11359;45.802;13.530;2023-04-03T10:38:15;0.52;;;0.45;;
22382;SDS011;11359;45.802;13.530;2023-04-03T10:40:55;0.40;;;0.40;;
22382;SDS011;11359;45.802;13.530;2023-04-03T10:43:36;0.50;;;0.50;;
22382;SDS011;11359;45.802;13.530;2023-04-03T10:46:09;0.57;;;0.50;;
22382;SDS011;11359;45.802;13.530;2023-04-03T10:51:45;0.40;;;0.40;;
22382;SDS011;11359;45.802;13.530;2023-04-03T10:54:25;0.60;;;0.50;;
22382;SDS011;11359;45.802;13.530;2023-04-03T10:57:03;0.45;;;0.45;;
22382;SDS011;11359;45.802;13.530;2023-04-03T11:04:52;0.60;;;0.40;;
22382;SDS011;11359;45.802;13.530;2023-04-03T11:07:24;0.30;;;0.30;;
22382;SDS011;11359;45.802;13.530;2023-04-03T11:09:54;0.40;;;0.40;;
22382;SDS011;11359;45.802;13.530;2023-04-03T11:12:28;0.40;;;0.40;;
22382;SDS011;11359;45.802;13.530;2023-04-03T11:14:58;0.40;;;0.40;;
22382;SDS011;11359;45.802;13.530;2023-04-03T11:17:28;0.43;;;0.35;;
22382;SDS011;11359;45.802;13.530;2023-04-03T11:22:36;0.40;;;0.40;;
22382;SDS011;11359;45.802;13.530;2023-04-03T11:27:40;0.40;;;0.40;;
22382;SDS011;11359;45.802;13.530;2023-04-03T11:35:52;0.52;;;0.40;;
22382;SDS011;11359;45.802;13.530;2023-04-03T11:38:33;0.50;;;0.40;;
22382;SDS011;11359;45.802;13.530;2023-04-03T11:41:04;0.45;;;0.40;;
22382;SDS011;11359;45.802;13.530;2023-04-03T11:43:32;0.40;;;0.40;;
22382;SDS011;11359;45.802;13.530;2023-04-03T11:46:00;0.50;;;0.50;;
22382;SDS011;11359;45.802;13.530;2023-04-03T11:50:54;1.05;;;0.50;;
22382;SDS011;11359;45.802;13.530;2023-04-03T11:53:26;0.52;;;0.40;;
22382;SDS011;11359;45.802;13.530;2023-04-03T11:55:56;0.40;;;0.40;;
22382;SDS011;11359;45.802;13.530;2023-04-03T11:58:33;1.10;;;0.50;;
22382;SDS011;11359;45.802;13.530;2023-04-03T12:14:19;0.50;;;0.50;;
22382;SDS011;11359;45.802;13.530;2023-04-03T12:16:21;0.98;;;0.50;;
22382;SDS011;11359;45.802;13.530;2023-04-03T12:46:15;0.50;;;0.40;;
22382;SDS011;11359;45.802;13.530;2023-04-03T12:48:52;0.40;;;0.38;;
22382;SDS011;11359;45.802;13.530;2023-04-03T12:54:27;0.40;;;0.40;;
22382;SDS011;11359;45.802;13.530;2023-04-03T12:57:17;0.50;;;0.50;;
22382;SDS011;11359;45.802;13.530;2023-04-03T12:59:45;0.80;;;0.60;;
22382;SDS011;11359;45.802;13.530;2023-04-03T13:04:48;0.47;;;0.47;;
22382;SDS011;11359;45.802;13.530;2023-04-03T13:07:35;0.40;;;0.40;;
22382;SDS011;11359;45.802;13.530;2023-04-03T13:12:33;0.50;;;0.50;;
22382;SDS011;11359;45.802;13.530;2023-04-03T13:15:11;0.50;;;0.50;;
22382;SDS011;11359;45.802;13.530;2023-04-03T13:17:50;0.50;;;0.40;;
22382;SDS011;11359;45.802;13.530;2023-04-03T13:25:33;0.70;;;0.50;;
22382;SDS011;11359;45.802;13.530;2023-04-03T13:28:05;0.40;;;0.40;;
22382;SDS011;11359;45.802;13.530;2023-04-03T13:30:36;0.80;;;0.60;;
22382;SDS011;11359;45.802;13.530;2023-04-03T13:33:05;0.60;;;0.50;;
22382;SDS011;11359;45.802;13.530;2023-04-03T13:35:43;0.60;;;0.50;;
22382;SDS011;11359;45.802;13.530;2023-04-03T13:40:52;0.45;;;0.45;;
22382;SDS011;11359;45.802;13.530;2023-04-03T13:43:24;0.35;;;0.35;;
22382;SDS011;11359;45.802;13.530;2023-04-03T13:45:58;0.30;;;0.30;;
22382;SDS011;11359;45.802;13.530;2023-04-03T13:48:45;0.40;;;0.35;;
22382;SDS011;11359;45.802;13.530;2023-04-03T13:53:47;0.40;;;0.40;;
22382;SDS011;11359;45.802;13.530;2023-04-03T13:58:57;0.30;;;0.30;;
22382;SDS011;11359;45.802;13.530;2023-04-03T14:01:32;0.47;;;0.47;;
22382;SDS011;11359;45.802;13.530;2023-04-03T14:04:14;0.40;;;0.40;;
22382;SDS011;11359;45.802;13.530;2023-04-03T14:06:52;0.40;;;0.40;;
22382;SDS011;11359;45.802;13.530;2023-04-03T14:09:19;0.50;;;0.45;;
22382;SDS011;11359;45.802;13.530;2023-04-03T14:11:47;0.40;;;0.40;;
22382;SDS011;11359;45.802;13.530;2023-04-03T14:14:26;0.52;;;0.40;;
22382;SDS011;11359;45.802;13.530;2023-04-03T14:16:56;0.55;;;0.30;;
22382;SDS011;11359;45.802;13.530;2023-04-03T14:19:34;0.30;;;0.30;;
22382;SDS011;11359;45.802;13.530;2023-04-03T14:22:07;0.57;;;0.50;;
22382;SDS011;11359;45.802;13.530;2023-04-03T14:24:39;0.32;;;0.32;;
22382;SDS011;11359;45.802;13.530;2023-04-03T14:27:05;0.52;;;0.40;;
22382;SDS011;11359;45.802;13.530;2023-04-03T14:29:42;0.50;;;0.40;;
22382;SDS011;11359;45.802;13.530;2023-04-03T14:32:10;0.30;;;0.30;;
22382;SDS011;11359;45.802;13.530;2023-04-03T14:34:40;0.43;;;0.43;;
22382;SDS011;11359;45.802;13.530;2023-04-03T14:37:12;0.30;;;0.30;;
22382;SDS011;11359;45.802;13.530;2023-04-03T14:39:40;0.38;;;0.38;;
22382;SDS011;11359;45.802;13.530;2023-04-03T14:42:11;0.40;;;0.40;;
22382;SDS011;11359;45.802;13.530;2023-04-03T14:44:38;0.30;;;0.30;;
22382;SDS011;11359;45.802;13.530;2023-04-03T14:47:04;0.30;;;0.30;;
22382;SDS011;11359;45.802;13.530;2023-04-03T14:49:30;0.40;;;0.40;;
22382;SDS011;11359;45.802;13.530;2023-04-03T14:51:57;0.35;;;0.35;;
22382;SDS011;11359;45.802;13.530;2023-04-03T14:54:23;0.47;;;0.35;;
22382;SDS011;11359;45.802;13.530;2023-04-03T14:56:54;0.30;;;0.30;;
22382;SDS011;11359;45.802;13.530;2023-04-03T14:59:22;0.57;;;0.40;;
22382;SDS011;11359;45.802;13.530;2023-04-03T15:01:48;0.40;;;0.40;;
22382;SDS011;11359;45.802;13.530;2023-04-03T15:06:40;0.30;;;0.30;;
22382;SDS011;11359;45.802;13.530;2023-04-03T15:09:16;0.70;;;0.40;;
22382;SDS011;11359;45.802;13.530;2023-04-03T15:11:49;0.30;;;0.30;;
22382;SDS011;11359;45.802;13.530;2023-04-03T15:14:16;0.30;;;0.30;;
22382;SDS011;11359;45.802;13.530;2023-04-03T15:16:45;0.40;;;0.40;;
22382;SDS011;11359;45.802;13.530;2023-04-03T15:19:11;0.38;;;0.38;;
22382;SDS011;11359;45.802;13.530;2023-04-03T15:21:38;0.50;;;0.40;;
22382;SDS011;11359;45.802;13.530;2023-04-03T15:24:04;0.40;;;0.40;;
22382;SDS011;11359;45.802;13.530;2023-04-03T15:26:30;0.40;;;0.40;;
22382;SDS011;11359;45.802;13.530;2023-04-03T15:28:57;0.30;;;0.30;;
22382;SDS011;11359;45.802;13.530;2023-04-03T15:31:27;0.30;;;0.30;;
22382;SDS011;11359;45.802;13.530;2023-04-03T15:33:52;0.40;;;0.40;;
22382;SDS011;11359;45.802;13.530;2023-04-03T15:36:18;0.40;;;0.40;;
22382;SDS011;11359;45.802;13.530;2023-04-03T15:38:44;0.32;;;0.32;;
22382;SDS011;11359;45.802;13.530;2023-04-03T15:41:09;0.30;;;0.30;;
22382;SDS011;11359;45.802;13.530;2023-04-03T15:43:36;0.30;;;0.30;;
22382;SDS011;11359;45.802;13.530;2023-04-03T15:46:02;0.30;;;0.30;;
22382;SDS011;11359;45.802;13.530;2023-04-03T15:48:29;0.40;;;0.30;;
22382;SDS011;11359;45.802;13.530;2023-04-03T15:50:55;0.60;;;0.50;;
22382;SDS011;11359;45.802;13.530;2023-04-03T15:53:21;0.30;;;0.30;;
22382;SDS011;11359;45.802;13.530;2023-04-03T15:55:47;0.30;;;0.30;;
22382;SDS011;11359;45.802;13.530;2023-04-03T15:58:13;0.30;;;0.30;;
22382;SDS011;11359;45.802;13.530;2023-04-03T16:00:39;0.30;;;0.30;;
22382;SDS011;11359;45.802;13.530;2023-04-03T16:03:09;0.30;;;0.30;;
22382;SDS011;11359;45.802;13.530;2023-04-03T16:05:38;0.40;;;0.40;;
22382;SDS011;11359;45.802;13.530;2023-04-03T16:08:05;0.40;;;0.40;;
22382;SDS011;11359;45.802;13.530;2023-04-03T16:10:32;0.50;;;0.32;;
22382;SDS011;11359;45.802;13.530;2023-04-03T16:12:59;0.20;;;0.20;;
22382;SDS011;11359;45.802;13.530;2023-04-03T16:15:26;0.30;;;0.30;;
22382;SDS011;11359;45.802;13.530;2023-04-03T16:17:52;0.25;;;0.25;;
22382;SDS011;11359;45.802;13.530;2023-04-03T16:20:18;0.30;;;0.30;;
22382;SDS011;11359;45.802;13.530;2023-04-03T16:22:47;0.40;;;0.30;;
22382;SDS011;11359;45.802;13.530;2023-04-03T16:25:13;0.30;;;0.30;;
22382;SDS011;11359;45.802;13.530;2023-04-03T16:27:39;0.40;;;0.30;;
22382;SDS011;11359;45.802;13.530;2023-04-03T16:30:05;0.50;;;0.40;;
22382;SDS011;11359;45.802;13.530;2023-04-03T16:32:33;0.40;;;0.30;;
22382;SDS011;11359;45.802;13.530;2023-04-03T16:35:01;0.30;;;0.30;;
22382;SDS011;11359;45.802;13.530;2023-04-03T16:37:27;0.60;;;0.50;;
22382;SDS011;11359;45.802;13.530;2023-04-03T16:39:53;0.60;;;0.50;;
22382;SDS011;11359;45.802;13.530;2023-04-03T16:42:19;0.30;;;0.30;;
22382;SDS011;11359;45.802;13.530;2023-04-03T16:44:45;0.40;;;0.40;;
22382;SDS011;11359;45.802;13.530;2023-04-03T16:47:11;0.30;;;0.30;;
22382;SDS011;11359;45.802;13.530;2023-04-03T16:49:38;0.70;;;0.50;;
22382;SDS011;11359;45.802;13.530;2023-04-03T16:52:05;0.30;;;0.30;;
22382;SDS011;11359;45.802;13.530;2023-04-03T16:54:31;0.50;;;0.40;;
22382;SDS011;11359;45.802;13.530;2023-04-03T16:56:58;0.38;;;0.30;;
22382;SDS011;11359;45.802;13.530;2023-04-03T16:59:24;0.63;;;0.40;;
22382;SDS011;11359;45.802;13.530;2023-04-03T17:01:50;0.40;;;0.40;;
22382;SDS011;11359;45.802;13.530;2023-04-03T17:04:15;0.40;;;0.40;;